EmailTwitter


Observations de surface / États-Unis / KJFK (74486)

Régions: Québec | Canada | États-Unis | Europe | France | UK | Ailleurs
Station
Affichage
Infos & localisation pour KJFK (74486) | Aide pour décoder les METARs

Observations prises le 2018-09-21 à 03H51 UTC à NEW YORK/JF KENN, NY (KJFK)

Etat du ciel: couvert.

Température: 19.0 Celsius

Point de rosée: 17.0 Celsius

Humidité relative: 88%

Indice Humidex: 24.

Vents: Sud-est à 11 km/h ou 6 noeuds.

Pression au niveau moyen de la mer: 102.50 kilopascals.

Calage altimétrique: 102.51 kilopascals ou 30.27 pouces de mercure.

Visibilité horizontale: 10.00 milles terrestres ou 16.00 kilomètres.

Hauteur du plafond: 762 mètres ( 2500 pieds ).

Observation METAR:

KJFK 210351Z 12006KT 10SM BKN025 OVC050 19/17 A3027 RMK AO2 SLP250 T01940167=